createdAt,value
2023-07-18T00:03:45.129Z,5.03
2023-07-18T00:06:18.704Z,5.03
2023-07-18T00:08:48.837Z,5.70
2023-07-18T00:11:19.114Z,5.20
2023-07-18T00:13:49.492Z,5.17
2023-07-18T00:16:19.871Z,5.27
2023-07-18T00:18:51.358Z,5.47
2023-07-18T00:21:21.997Z,5.17
2023-07-18T00:23:52.192Z,4.73
2023-07-18T00:26:25.112Z,5.80
2023-07-18T00:28:55.713Z,4.67
2023-07-18T00:31:26.060Z,4.67
2023-07-18T00:33:56.351Z,5.15
2023-07-18T00:36:26.803Z,5.40
2023-07-18T00:38:57.004Z,5.33
2023-07-18T00:41:27.529Z,4.63
2023-07-18T00:43:58.469Z,4.62
2023-07-18T00:46:30.333Z,5.00
2023-07-18T00:49:01.571Z,4.93
2023-07-18T00:51:32.731Z,4.37
2023-07-18T00:54:04.066Z,4.83
2023-07-18T00:56:35.617Z,5.03
2023-07-18T00:59:07.822Z,5.85
2023-07-18T01:01:38.562Z,4.53
2023-07-18T01:04:09.669Z,4.50
2023-07-18T01:06:40.006Z,4.30
2023-07-18T01:09:10.711Z,4.27
2023-07-18T01:11:40.834Z,4.83
2023-07-18T01:14:11.368Z,4.10
2023-07-18T01:16:43.729Z,4.37
2023-07-18T01:19:16.110Z,4.30
2023-07-18T01:21:46.025Z,4.12
2023-07-18T01:24:16.120Z,4.67
2023-07-18T01:26:47.077Z,4.00
2023-07-18T01:29:17.404Z,4.03
2023-07-18T01:31:48.919Z,4.33
2023-07-18T01:34:19.067Z,4.17
2023-07-18T01:39:20.331Z,3.77
2023-07-18T01:41:50.451Z,4.10
2023-07-18T01:44:20.974Z,3.93
2023-07-18T01:46:51.313Z,4.03
2023-07-18T01:49:21.625Z,4.57
2023-07-18T01:51:51.532Z,4.20
2023-07-18T01:54:21.777Z,4.17
2023-07-18T01:56:52.390Z,4.90
2023-07-18T01:59:23.937Z,4.57
2023-07-18T02:01:54.099Z,4.10
2023-07-18T02:04:24.793Z,4.63
2023-07-18T02:06:55.327Z,4.17
2023-07-18T02:09:25.582Z,4.40
2023-07-18T02:11:56.791Z,4.40
2023-07-18T02:14:26.908Z,4.40
2023-07-18T02:16:58.908Z,4.70
2023-07-18T02:19:29.190Z,3.47
2023-07-18T02:21:59.112Z,4.73
2023-07-18T02:24:28.811Z,4.60
2023-07-18T02:26:59.958Z,4.40
2023-07-18T02:29:30.485Z,4.25
2023-07-18T02:32:00.606Z,4.40
2023-07-18T02:34:30.732Z,4.90
2023-07-18T02:37:00.866Z,4.60
2023-07-18T02:39:33.151Z,4.60
2023-07-18T02:44:32.137Z,5.10
2023-07-18T02:47:02.002Z,5.80
2023-07-18T02:49:32.044Z,5.60
2023-07-18T02:52:03.809Z,5.33
2023-07-18T02:54:33.923Z,6.25
2023-07-18T02:57:05.933Z,5.40
2023-07-18T02:59:36.412Z,4.67
2023-07-18T03:02:07.137Z,4.20
2023-07-18T03:04:37.480Z,4.47
2023-07-18T03:07:08.979Z,4.50
2023-07-18T03:09:39.107Z,4.80
2023-07-18T03:12:11.458Z,4.30
2023-07-18T03:14:42.941Z,4.70
2023-07-18T03:19:43.308Z,4.90
2023-07-18T03:22:14.031Z,4.87
2023-07-18T03:24:44.970Z,4.60
2023-07-18T03:27:15.304Z,5.20
2023-07-18T03:29:45.251Z,4.80
2023-07-18T03:32:15.272Z,5.80
2023-07-18T03:34:46.059Z,4.40
2023-07-18T03:37:16.552Z,4.50
2023-07-18T03:39:46.501Z,4.42
2023-07-18T03:42:16.619Z,5.00
2023-07-18T03:44:47.353Z,4.47
2023-07-18T03:47:21.202Z,4.90
2023-07-18T03:49:52.094Z,4.67
2023-07-18T03:52:22.214Z,4.90
2023-07-18T03:54:52.738Z,5.10
2023-07-18T03:57:23.241Z,4.63
2023-07-18T03:59:52.978Z,5.37
2023-07-18T04:02:22.801Z,4.80
2023-07-18T04:04:53.222Z,4.97
2023-07-18T04:07:23.746Z,5.70
2023-07-18T04:09:53.632Z,4.50
2023-07-18T04:12:23.984Z,4.87
2023-07-18T04:14:54.719Z,4.67
2023-07-18T04:17:25.337Z,4.93
2023-07-18T04:19:58.411Z,5.20
2023-07-18T04:22:30.404Z,5.87
2023-07-18T04:25:00.924Z,5.83
2023-07-18T04:27:31.456Z,5.90
2023-07-18T04:30:01.171Z,5.93
2023-07-18T04:32:31.858Z,5.63
2023-07-18T04:35:02.024Z,5.70
2023-07-18T04:37:32.744Z,5.20
2023-07-18T04:40:02.992Z,5.07
2023-07-18T04:42:35.858Z,4.97
2023-07-18T04:45:08.686Z,4.93
2023-07-18T04:47:39.080Z,4.80
2023-07-18T04:50:11.472Z,4.95
2023-07-18T04:52:41.441Z,4.83
2023-07-18T04:55:12.554Z,4.60
2023-07-18T04:57:42.705Z,4.50
2023-07-18T05:00:16.372Z,4.63
2023-07-18T05:02:46.445Z,5.00
2023-07-18T05:05:18.754Z,5.03
2023-07-18T05:07:48.909Z,4.77
2023-07-18T05:10:19.170Z,4.63
2023-07-18T05:12:49.353Z,4.90
2023-07-18T05:15:20.531Z,5.07
2023-07-18T05:20:20.140Z,4.60
2023-07-18T05:22:50.291Z,4.73
2023-07-18T05:25:20.772Z,4.90
2023-07-18T05:27:51.301Z,4.47
2023-07-18T05:30:21.191Z,4.28
2023-07-18T05:32:54.202Z,4.33
2023-07-18T05:35:25.468Z,4.80
2023-07-18T05:37:57.096Z,4.62
2023-07-18T05:40:27.215Z,5.27
2023-07-18T05:42:57.337Z,4.57
2023-07-18T05:45:28.079Z,4.90
2023-07-18T05:47:57.762Z,4.90
2023-07-18T05:50:28.109Z,4.60
2023-07-18T05:52:57.993Z,4.80
2023-07-18T05:55:29.049Z,4.83
2023-07-18T06:00:28.373Z,5.30
2023-07-18T06:02:59.044Z,4.33
2023-07-18T06:05:30.047Z,5.12
2023-07-18T06:08:00.181Z,4.83
2023-07-18T06:10:29.875Z,4.80
2023-07-18T06:13:00.605Z,4.90
2023-07-18T06:15:31.261Z,4.57
2023-07-18T06:18:01.493Z,4.50
2023-07-18T06:20:33.619Z,5.50
2023-07-18T06:23:03.788Z,5.20
2023-07-18T06:25:34.046Z,5.00
2023-07-18T06:28:05.413Z,4.57
2023-07-18T06:30:36.332Z,4.63
2023-07-18T06:35:35.973Z,4.70
2023-07-18T06:38:05.392Z,4.72
2023-07-18T06:40:35.313Z,4.77
2023-07-18T06:43:05.105Z,4.30
2023-07-18T06:45:36.050Z,4.37
2023-07-18T06:48:06.798Z,4.55
2023-07-18T06:50:37.296Z,4.47
2023-07-18T06:53:07.216Z,4.10
2023-07-18T06:55:36.845Z,7.53
2023-07-18T06:58:06.837Z,5.87
2023-07-18T07:00:36.941Z,4.57
2023-07-18T07:03:09.189Z,4.30
2023-07-18T07:05:40.672Z,4.80
2023-07-18T07:08:11.264Z,4.37
2023-07-18T07:10:42.334Z,4.35
2023-07-18T07:15:42.170Z,4.20
2023-07-18T07:18:12.285Z,4.40
2023-07-18T07:20:42.197Z,4.77
2023-07-18T07:23:11.962Z,4.83
2023-07-18T07:25:45.110Z,6.37
2023-07-18T07:28:15.361Z,4.70
2023-07-18T07:30:45.393Z,6.00
2023-07-18T07:33:15.600Z,5.43
2023-07-18T07:35:46.612Z,5.35
2023-07-18T07:38:18.284Z,5.30
2023-07-18T07:40:47.857Z,5.07
2023-07-18T07:43:17.581Z,5.77
2023-07-18T07:45:47.455Z,5.83
2023-07-18T07:48:17.643Z,5.33
2023-07-18T07:50:49.059Z,5.23
2023-07-18T07:53:19.192Z,4.70
2023-07-18T07:55:48.974Z,4.77
2023-07-18T07:58:18.500Z,4.77
2023-07-18T08:00:48.812Z,5.10
2023-07-18T08:03:19.559Z,5.50
2023-07-18T08:05:50.482Z,4.87
2023-07-18T08:08:19.981Z,4.80
2023-07-18T08:10:49.904Z,5.17
2023-07-18T08:13:20.146Z,4.83
2023-07-18T08:15:51.577Z,4.75
2023-07-18T08:18:21.503Z,4.47
2023-07-18T08:20:51.401Z,4.90
2023-07-18T08:23:21.325Z,4.90
2023-07-18T08:25:51.430Z,5.50
2023-07-18T08:28:22.720Z,5.22
2023-07-18T08:30:52.899Z,4.80
2023-07-18T08:33:24.862Z,4.43
2023-07-18T08:35:54.989Z,5.10
2023-07-18T08:38:24.888Z,5.30
2023-07-18T08:40:54.408Z,5.17
2023-07-18T08:43:25.550Z,5.07
2023-07-18T08:45:56.880Z,5.40
2023-07-18T08:48:26.963Z,4.80
2023-07-18T08:51:00.773Z,5.20
2023-07-18T08:53:31.133Z,4.60
2023-07-18T08:56:01.915Z,4.55
2023-07-18T08:58:31.988Z,4.57
2023-07-18T09:01:01.897Z,4.70
2023-07-18T09:03:32.880Z,4.45
2023-07-18T09:06:05.217Z,4.23
2023-07-18T09:08:42.902Z,4.83
2023-07-18T09:11:13.540Z,4.83
2023-07-18T09:13:44.712Z,5.20
2023-07-18T09:16:16.526Z,5.35
2023-07-18T09:18:50.872Z,5.10
2023-07-18T09:21:22.018Z,6.83
2023-07-18T09:23:53.449Z,5.57
2023-07-18T09:26:23.840Z,4.50
2023-07-18T09:31:25.401Z,4.40
2023-07-18T09:33:56.394Z,4.63
2023-07-18T09:36:27.252Z,4.63
2023-07-18T09:38:57.039Z,4.43
2023-07-18T09:41:26.999Z,4.33
2023-07-18T09:44:13.937Z,4.65
2023-07-18T09:49:15.719Z,4.33
2023-07-18T09:51:52.216Z,4.22
2023-07-18T09:54:23.689Z,4.43
2023-07-18T09:56:55.717Z,4.60
2023-07-18T09:59:28.991Z,4.60
2023-07-18T10:01:59.644Z,4.80
2023-07-18T10:04:30.583Z,6.50
2023-07-18T10:07:02.748Z,4.80
2023-07-18T10:09:34.036Z,5.03
2023-07-18T10:12:12.211Z,5.37
2023-07-18T10:14:57.500Z,5.23
2023-07-18T10:17:34.894Z,4.53
2023-07-18T10:20:13.897Z,4.50
2023-07-18T10:22:53.896Z,4.33
2023-07-18T10:25:23.752Z,5.20
2023-07-18T10:27:54.719Z,5.67
2023-07-18T10:30:25.197Z,4.97
2023-07-18T10:32:56.774Z,4.43
2023-07-18T10:35:28.068Z,4.70
2023-07-18T10:38:03.707Z,4.93
2023-07-18T10:40:39.740Z,4.93
2023-07-18T10:43:11.108Z,6.40
2023-07-18T10:45:42.811Z,4.40
2023-07-18T10:48:16.695Z,5.13
2023-07-18T10:50:49.499Z,9.83
2023-07-18T10:53:21.090Z,5.07
2023-07-18T10:55:52.976Z,4.90
2023-07-18T10:58:23.979Z,4.73
2023-07-18T11:00:54.140Z,5.03
2023-07-18T11:03:27.721Z,4.75
2023-07-18T11:05:57.993Z,5.10
2023-07-18T11:10:59.843Z,4.87
2023-07-18T11:13:31.653Z,4.50
2023-07-18T11:16:03.609Z,4.90
2023-07-18T11:18:36.690Z,5.47
2023-07-18T11:21:07.965Z,5.07
2023-07-18T11:23:39.300Z,4.80
2023-07-18T11:26:15.544Z,5.00
2023-07-18T11:28:47.025Z,6.50
2023-07-18T11:34:02.494Z,5.00
2023-07-18T11:36:34.105Z,4.33
2023-07-18T11:39:04.700Z,4.07
2023-07-18T11:41:35.340Z,4.23
2023-07-18T11:44:06.438Z,4.13
2023-07-18T11:46:41.290Z,4.30
2023-07-18T11:49:13.251Z,4.03
2023-07-18T11:51:44.191Z,3.73
2023-07-18T11:54:14.494Z,3.93
2023-07-18T11:56:44.608Z,3.60
2023-07-18T11:59:14.758Z,3.60
2023-07-18T12:01:44.709Z,3.40
2023-07-18T12:04:15.015Z,3.27
2023-07-18T12:09:13.777Z,3.07
2023-07-18T12:11:45.056Z,3.72
2023-07-18T12:14:15.458Z,3.40
2023-07-18T12:16:45.601Z,3.70
2023-07-18T12:19:15.857Z,3.95
2023-07-18T12:21:45.615Z,3.85
2023-07-18T12:24:16.535Z,4.08
2023-07-18T12:26:46.252Z,3.83
2023-07-18T12:29:17.889Z,4.20
2023-07-18T12:31:50.000Z,4.07
2023-07-18T12:34:20.212Z,3.97
2023-07-18T12:39:20.068Z,4.13
2023-07-18T12:41:49.666Z,4.30
2023-07-18T12:44:24.321Z,4.45
2023-07-18T12:46:57.154Z,3.60
2023-07-18T12:51:58.846Z,3.80
2023-07-18T12:54:29.036Z,3.83
2023-07-18T12:57:00.517Z,3.93
2023-07-18T12:59:30.502Z,3.50
2023-07-18T13:02:00.889Z,3.50
2023-07-18T13:04:31.353Z,3.67
2023-07-18T13:07:01.466Z,3.20
2023-07-18T13:09:32.006Z,3.70
2023-07-18T13:12:01.513Z,3.50
2023-07-18T13:14:32.848Z,3.63
2023-07-18T13:17:02.170Z,3.50
2023-07-18T13:19:31.863Z,3.07
2023-07-18T13:22:01.979Z,4.08
2023-07-18T13:24:32.099Z,3.25
2023-07-18T13:27:01.811Z,3.40
2023-07-18T13:29:31.448Z,4.07
2023-07-18T13:32:01.088Z,3.57
2023-07-18T13:34:32.165Z,3.20
2023-07-18T13:37:03.435Z,3.70
2023-07-18T13:39:33.391Z,3.40
2023-07-18T13:42:03.146Z,4.25
2023-07-18T13:44:35.271Z,3.47
2023-07-18T13:47:05.639Z,3.60
2023-07-18T13:49:49.645Z,3.50
2023-07-18T13:52:22.866Z,3.40
2023-07-18T13:54:54.417Z,3.53
2023-07-18T13:57:24.739Z,3.70
2023-07-18T13:59:54.268Z,3.62
2023-07-18T14:02:24.577Z,3.60
2023-07-18T14:04:54.694Z,3.37
2023-07-18T14:07:23.985Z,3.02
2023-07-18T14:09:53.874Z,3.37
2023-07-18T14:12:23.942Z,3.45
2023-07-18T14:14:54.137Z,3.80
2023-07-18T14:19:52.948Z,4.00
2023-07-18T14:22:23.393Z,3.27
2023-07-18T14:24:53.389Z,3.13
2023-07-18T14:27:22.911Z,3.22
2023-07-18T14:29:52.810Z,3.62
2023-07-18T14:32:23.124Z,3.77
2023-07-18T14:37:22.547Z,3.10
2023-07-18T14:40:02.896Z,3.22
2023-07-18T14:45:01.308Z,3.50
2023-07-18T14:47:30.932Z,2.87
2023-07-18T14:50:02.675Z,3.77
2023-07-18T14:52:32.477Z,3.40
2023-07-18T14:55:03.081Z,3.58
2023-07-18T14:57:32.689Z,3.20
2023-07-18T15:00:02.953Z,3.63
2023-07-18T15:02:33.572Z,3.58
2023-07-18T15:05:03.865Z,2.80
2023-07-18T15:07:34.006Z,3.20
2023-07-18T15:10:03.980Z,3.43
2023-07-18T15:12:33.600Z,3.45
2023-07-18T15:15:04.171Z,3.25
2023-07-18T15:17:40.388Z,3.40
2023-07-18T15:20:12.849Z,3.13
2023-07-18T15:22:43.782Z,2.97
2023-07-18T15:25:13.847Z,2.90
2023-07-18T15:27:44.713Z,3.58
2023-07-18T15:30:15.162Z,3.00
2023-07-18T15:35:17.365Z,3.30
2023-07-18T15:37:47.245Z,3.50
2023-07-18T15:40:17.078Z,3.30
2023-07-18T15:42:46.287Z,3.83
2023-07-18T15:45:16.027Z,3.80
2023-07-18T15:47:46.714Z,3.60
2023-07-18T15:50:16.271Z,3.23
2023-07-18T15:52:46.383Z,3.27
2023-07-18T15:55:16.496Z,2.70
2023-07-18T15:57:45.925Z,2.95
2023-07-18T16:00:17.795Z,2.90
2023-07-18T16:02:47.934Z,3.13
2023-07-18T16:05:17.986Z,2.67
2023-07-18T16:07:47.924Z,3.13
2023-07-18T16:10:17.535Z,2.67
2023-07-18T16:12:47.981Z,2.57
2023-07-18T16:15:17.844Z,2.40
2023-07-18T16:17:47.533Z,2.37
2023-07-18T16:20:17.256Z,2.80
2023-07-18T16:22:53.035Z,2.90
2023-07-18T16:25:22.992Z,2.73
2023-07-18T16:27:54.526Z,2.55
2023-07-18T16:30:24.468Z,2.73
2023-07-18T16:32:55.531Z,2.47
2023-07-18T16:35:25.561Z,5.23
2023-07-18T16:37:55.076Z,2.80
2023-07-18T16:40:24.979Z,3.00
2023-07-18T16:42:57.288Z,3.27
2023-07-18T16:45:27.401Z,2.80
2023-07-18T16:47:57.645Z,2.85
2023-07-18T16:50:27.850Z,3.58
2023-07-18T16:52:58.580Z,3.13
2023-07-18T16:55:29.597Z,3.50
2023-07-18T16:57:59.720Z,3.63
2023-07-18T17:00:29.172Z,3.52
2023-07-18T17:02:59.216Z,3.40
2023-07-18T17:05:29.468Z,3.33
2023-07-18T17:07:59.574Z,6.03
2023-07-18T17:10:30.204Z,4.15
2023-07-18T17:13:00.434Z,6.05
2023-07-18T17:15:31.376Z,4.55
2023-07-18T17:18:01.563Z,3.63
2023-07-18T17:20:31.458Z,5.00
2023-07-18T17:23:01.573Z,3.97
2023-07-18T17:25:31.767Z,3.05
2023-07-18T17:28:01.732Z,3.30
2023-07-18T17:30:31.466Z,3.45
2023-07-18T17:33:02.265Z,3.20
2023-07-18T17:38:00.607Z,3.00
2023-07-18T17:40:30.082Z,3.40
2023-07-18T17:43:04.230Z,3.10
2023-07-18T17:45:35.048Z,3.13
2023-07-18T17:48:06.057Z,3.30
2023-07-18T17:50:35.560Z,3.57
2023-07-18T17:53:06.015Z,2.93
2023-07-18T17:55:36.258Z,3.25
2023-07-18T17:58:06.050Z,3.27
2023-07-18T18:00:35.473Z,3.40
2023-07-18T18:03:06.576Z,4.97
2023-07-18T18:05:46.272Z,3.37
2023-07-18T18:08:16.990Z,3.17
2023-07-18T18:13:16.593Z,3.20
2023-07-18T18:16:05.107Z,3.10
2023-07-18T18:18:37.326Z,3.52
2023-07-18T18:21:09.475Z,3.52
2023-07-18T18:23:40.730Z,4.40
2023-07-18T18:26:11.174Z,3.93
2023-07-18T18:28:41.267Z,3.50
2023-07-18T18:31:13.312Z,3.93
2023-07-18T18:33:43.352Z,3.90
2023-07-18T18:36:14.096Z,3.80
2023-07-18T18:38:44.538Z,3.67
2023-07-18T18:41:15.182Z,3.22
2023-07-18T18:43:45.252Z,3.37
2023-07-18T18:46:15.433Z,3.53
2023-07-18T18:48:45.084Z,3.13
2023-07-18T18:51:15.410Z,3.50
2023-07-18T18:53:44.833Z,3.77
2023-07-18T18:56:14.834Z,3.37
2023-07-18T18:58:45.332Z,3.50
2023-07-18T19:01:15.471Z,3.60
2023-07-18T19:03:45.600Z,3.55
2023-07-18T19:06:15.502Z,11.23
2023-07-18T19:08:45.224Z,10.57
2023-07-18T19:11:15.953Z,6.73
2023-07-18T19:13:49.266Z,4.60
2023-07-18T19:16:32.856Z,4.23
2023-07-18T19:19:09.197Z,4.43
2023-07-18T19:21:40.183Z,5.67
2023-07-18T19:24:10.145Z,4.37
2023-07-18T19:26:39.780Z,3.60
2023-07-18T19:29:09.930Z,3.50
2023-07-18T19:31:40.682Z,3.65
2023-07-18T19:34:10.365Z,4.13
2023-07-18T19:36:40.485Z,3.67
2023-07-18T19:39:12.035Z,3.40
2023-07-18T19:41:43.395Z,3.40
2023-07-18T19:44:13.098Z,3.50
2023-07-18T19:46:43.235Z,2.87
2023-07-18T19:49:13.746Z,3.20
2023-07-18T19:51:44.672Z,3.87
2023-07-18T19:54:14.407Z,3.95
2023-07-18T19:56:44.920Z,3.65
2023-07-18T19:59:15.160Z,3.77
2023-07-18T20:01:46.882Z,3.40
2023-07-18T20:04:17.548Z,4.10
2023-07-18T20:06:47.050Z,3.30
2023-07-18T20:09:17.140Z,3.97
2023-07-18T20:11:48.300Z,3.70
2023-07-18T20:14:18.330Z,3.47
2023-07-18T20:16:48.223Z,3.27
2023-07-18T20:19:18.854Z,3.33
2023-07-18T20:21:49.150Z,3.37
2023-07-18T20:24:19.082Z,3.33
2023-07-18T20:26:48.994Z,3.70
2023-07-18T20:29:20.144Z,3.30
2023-07-18T20:31:50.926Z,3.92
2023-07-18T20:34:20.798Z,3.33
2023-07-18T20:36:51.121Z,3.30
2023-07-18T20:39:21.275Z,3.47
2023-07-18T20:41:51.180Z,3.27
2023-07-18T20:44:21.275Z,3.60
2023-07-18T20:46:51.168Z,3.50
2023-07-18T20:49:22.332Z,3.80
2023-07-18T20:51:52.459Z,3.30
2023-07-18T20:54:22.777Z,3.30
2023-07-18T20:56:52.681Z,3.50
2023-07-18T20:59:23.413Z,3.23
2023-07-18T21:01:54.006Z,3.50
2023-07-18T21:04:24.281Z,3.25
2023-07-18T21:06:54.390Z,3.63
2023-07-18T21:09:25.330Z,3.37
2023-07-18T21:11:55.440Z,3.20
2023-07-18T21:14:25.365Z,3.73
2023-07-18T21:16:55.689Z,3.43
2023-07-18T21:19:26.211Z,3.07
2023-07-18T21:21:56.935Z,3.90
2023-07-18T21:24:26.856Z,3.60
2023-07-18T21:26:57.076Z,3.40
2023-07-18T21:29:27.302Z,3.10
2023-07-18T21:31:57.865Z,3.93
2023-07-18T21:34:27.487Z,3.87
2023-07-18T21:36:58.705Z,3.90
2023-07-18T21:39:29.617Z,3.45
2023-07-18T21:41:59.424Z,3.37
2023-07-18T21:44:29.442Z,4.07
2023-07-18T21:46:59.349Z,3.77
2023-07-18T21:49:30.312Z,4.07
2023-07-18T21:52:00.204Z,4.30
2023-07-18T21:54:30.332Z,4.00
2023-07-18T21:57:00.031Z,3.53
2023-07-18T21:59:31.792Z,3.83
2023-07-18T22:02:02.255Z,3.97
2023-07-18T22:04:32.219Z,4.30
2023-07-18T22:07:02.143Z,4.27
2023-07-18T22:09:33.620Z,3.90
2023-07-18T22:12:04.368Z,4.10
2023-07-18T22:14:34.362Z,4.33
2023-07-18T22:17:04.366Z,4.30
2023-07-18T22:19:34.997Z,4.47
2023-07-18T22:22:06.520Z,4.77
2023-07-18T22:24:36.463Z,4.27
2023-07-18T22:27:07.400Z,4.37
2023-07-18T22:29:37.961Z,4.13
2023-07-18T22:32:10.188Z,4.93
2023-07-18T22:34:40.418Z,3.63
2023-07-18T22:37:10.660Z,4.27
2023-07-18T22:39:42.849Z,4.30
2023-07-18T22:42:17.197Z,4.10
2023-07-18T22:44:48.456Z,4.37
2023-07-18T22:49:48.301Z,4.33
2023-07-18T22:52:19.407Z,5.37
2023-07-18T22:54:51.240Z,4.47
2023-07-18T22:57:21.925Z,4.37
2023-07-18T22:59:53.721Z,4.62
2023-07-18T23:02:24.455Z,4.30
2023-07-18T23:04:54.336Z,4.90
2023-07-18T23:07:24.660Z,3.97
2023-07-18T23:09:55.601Z,4.37
2023-07-18T23:12:25.100Z,5.07
2023-07-18T23:14:55.229Z,4.13
2023-07-18T23:17:25.871Z,4.10
2023-07-18T23:19:55.845Z,4.53
2023-07-18T23:22:25.787Z,4.47
2023-07-18T23:24:56.316Z,4.53
2023-07-18T23:27:26.215Z,4.50
2023-07-18T23:29:56.548Z,4.37
2023-07-18T23:32:26.689Z,4.60
2023-07-18T23:34:57.951Z,4.57
2023-07-18T23:37:28.533Z,5.47
2023-07-18T23:39:58.446Z,4.83
2023-07-18T23:42:29.917Z,4.60
2023-07-18T23:44:59.704Z,3.90
2023-07-18T23:47:29.845Z,4.30
2023-07-18T23:49:59.952Z,4.63
2023-07-18T23:52:29.874Z,4.77
2023-07-18T23:54:59.989Z,4.50
2023-07-18T23:57:29.877Z,4.40
